sensor_id;sensor_type;location;lat;lon;timestamp;temperature;humidity
15983;DHT22;14442;50.196;8.096;2022-10-31T00:01:10;20.30;66.90
15983;DHT22;14442;50.196;8.096;2022-10-31T00:03:37;20.30;66.90
15983;DHT22;14442;50.196;8.096;2022-10-31T00:06:06;20.30;66.90
15983;DHT22;14442;50.196;8.096;2022-10-31T00:08:32;20.30;66.90
15983;DHT22;14442;50.196;8.096;2022-10-31T00:10:59;20.40;66.90
15983;DHT22;14442;50.196;8.096;2022-10-31T00:13:26;20.30;67.00
15983;DHT22;14442;50.196;8.096;2022-10-31T00:15:53;20.40;67.00
15983;DHT22;14442;50.196;8.096;2022-10-31T00:18:19;20.40;66.90
15983;DHT22;14442;50.196;8.096;2022-10-31T00:20:46;20.30;66.60
15983;DHT22;14442;50.196;8.096;2022-10-31T00:23:14;20.30;66.60
15983;DHT22;14442;50.196;8.096;2022-10-31T00:25:40;20.30;66.70
15983;DHT22;14442;50.196;8.096;2022-10-31T00:28:10;20.30;66.70
15983;DHT22;14442;50.196;8.096;2022-10-31T00:30:37;20.20;66.70
15983;DHT22;14442;50.196;8.096;2022-10-31T00:33:04;20.20;66.70
15983;DHT22;14442;50.196;8.096;2022-10-31T00:35:31;20.20;66.80
15983;DHT22;14442;50.196;8.096;2022-10-31T00:37:58;20.20;66.80
15983;DHT22;14442;50.196;8.096;2022-10-31T00:40:26;20.20;66.90
15983;DHT22;14442;50.196;8.096;2022-10-31T00:42:52;20.20;66.90
15983;DHT22;14442;50.196;8.096;2022-10-31T00:45:19;20.20;66.90
15983;DHT22;14442;50.196;8.096;2022-10-31T00:47:46;20.20;66.90
15983;DHT22;14442;50.196;8.096;2022-10-31T00:50:12;20.20;66.90
15983;DHT22;14442;50.196;8.096;2022-10-31T00:52:39;20.10;66.90
15983;DHT22;14442;50.196;8.096;2022-10-31T00:55:06;20.10;66.80
15983;DHT22;14442;50.196;8.096;2022-10-31T00:57:34;20.20;66.90
15983;DHT22;14442;50.196;8.096;2022-10-31T01:00:01;20.10;66.90
15983;DHT22;14442;50.196;8.096;2022-10-31T01:02:27;20.10;66.90
15983;DHT22;14442;50.196;8.096;2022-10-31T01:04:54;20.10;66.90
15983;DHT22;14442;50.196;8.096;2022-10-31T01:07:21;20.10;66.90
15983;DHT22;14442;50.196;8.096;2022-10-31T01:09:47;20.10;66.90
15983;DHT22;14442;50.196;8.096;2022-10-31T01:12:14;20.10;66.90
15983;DHT22;14442;50.196;8.096;2022-10-31T01:14:44;20.10;66.90
15983;DHT22;14442;50.196;8.096;2022-10-31T01:17:11;20.10;66.90
15983;DHT22;14442;50.196;8.096;2022-10-31T01:19:37;20.10;66.90
15983;DHT22;14442;50.196;8.096;2022-10-31T01:22:04;20.10;66.90
15983;DHT22;14442;50.196;8.096;2022-10-31T01:24:31;20.00;66.90
15983;DHT22;14442;50.196;8.096;2022-10-31T01:26:57;20.10;67.00
15983;DHT22;14442;50.196;8.096;2022-10-31T01:29:24;20.00;66.90
15983;DHT22;14442;50.196;8.096;2022-10-31T01:31:52;20.00;66.90
15983;DHT22;14442;50.196;8.096;2022-10-31T01:34:19;20.00;66.90
15983;DHT22;14442;50.196;8.096;2022-10-31T01:36:46;20.00;66.90
15983;DHT22;14442;50.196;8.096;2022-10-31T01:39:17;20.00;66.90
15983;DHT22;14442;50.196;8.096;2022-10-31T01:41:46;20.00;66.90
15983;DHT22;14442;50.196;8.096;2022-10-31T01:47:17;20.00;66.90
15983;DHT22;14442;50.196;8.096;2022-10-31T01:49:47;20.00;66.90
15983;DHT22;14442;50.196;8.096;2022-10-31T01:52:20;20.00;66.90
15983;DHT22;14442;50.196;8.096;2022-10-31T01:54:52;20.00;67.00
15983;DHT22;14442;50.196;8.096;2022-10-31T01:57:20;19.90;66.80
15983;DHT22;14442;50.196;8.096;2022-10-31T01:59:50;20.00;66.90
15983;DHT22;14442;50.196;8.096;2022-10-31T02:02:20;19.90;66.80
15983;DHT22;14442;50.196;8.096;2022-10-31T02:04:47;19.90;66.80
15983;DHT22;14442;50.196;8.096;2022-10-31T02:07:17;19.90;66.80
15983;DHT22;14442;50.196;8.096;2022-10-31T02:09:47;19.90;66.90
15983;DHT22;14442;50.196;8.096;2022-10-31T02:12:16;19.90;66.90
15983;DHT22;14442;50.196;8.096;2022-10-31T02:14:44;19.90;66.90
15983;DHT22;14442;50.196;8.096;2022-10-31T02:17:11;19.90;66.90
15983;DHT22;14442;50.196;8.096;2022-10-31T02:19:43;19.90;66.90
15983;DHT22;14442;50.196;8.096;2022-10-31T02:22:18;19.90;67.60
15983;DHT22;14442;50.196;8.096;2022-10-31T02:24:58;19.90;66.90
15983;DHT22;14442;50.196;8.096;2022-10-31T02:27:52;19.90;66.90
15983;DHT22;14442;50.196;8.096;2022-10-31T02:30:22;19.90;66.90
15983;DHT22;14442;50.196;8.096;2022-10-31T02:33:11;19.90;66.90
15983;DHT22;14442;50.196;8.096;2022-10-31T02:35:49;19.90;66.90
15983;DHT22;14442;50.196;8.096;2022-10-31T02:38:24;19.90;66.90
15983;DHT22;14442;50.196;8.096;2022-10-31T02:41:01;19.80;66.90
15983;DHT22;14442;50.196;8.096;2022-10-31T02:43:35;19.80;66.90
15983;DHT22;14442;50.196;8.096;2022-10-31T02:46:08;19.80;66.80
15983;DHT22;14442;50.196;8.096;2022-10-31T02:48:40;19.80;66.80
15983;DHT22;14442;50.196;8.096;2022-10-31T02:51:08;19.80;66.80
15983;DHT22;14442;50.196;8.096;2022-10-31T02:53:37;19.80;66.80
15983;DHT22;14442;50.196;8.096;2022-10-31T02:56:06;19.80;66.80
15983;DHT22;14442;50.196;8.096;2022-10-31T02:58:35;19.80;66.90
15983;DHT22;14442;50.196;8.096;2022-10-31T03:04:22;19.80;66.90
15983;DHT22;14442;50.196;8.096;2022-10-31T03:06:54;19.80;66.80
15983;DHT22;14442;50.196;8.096;2022-10-31T03:09:25;19.80;66.90
15983;DHT22;14442;50.196;8.096;2022-10-31T03:11:58;19.80;66.90
15983;DHT22;14442;50.196;8.096;2022-10-31T03:14:35;19.80;66.90
15983;DHT22;14442;50.196;8.096;2022-10-31T03:17:06;19.80;66.90
15983;DHT22;14442;50.196;8.096;2022-10-31T03:19:39;19.80;66.90
15983;DHT22;14442;50.196;8.096;2022-10-31T03:22:12;19.70;66.80
15983;DHT22;14442;50.196;8.096;2022-10-31T03:24:42;19.70;66.70
15983;DHT22;14442;50.196;8.096;2022-10-31T03:27:11;19.70;66.70
15983;DHT22;14442;50.196;8.096;2022-10-31T03:29:40;19.80;66.80
15983;DHT22;14442;50.196;8.096;2022-10-31T03:32:12;19.70;66.80
15983;DHT22;14442;50.196;8.096;2022-10-31T03:34:42;19.70;66.70
15983;DHT22;14442;50.196;8.096;2022-10-31T03:37:13;19.70;66.70
15983;DHT22;14442;50.196;8.096;2022-10-31T03:39:42;19.70;66.70
15983;DHT22;14442;50.196;8.096;2022-10-31T03:42:12;19.70;66.70
15983;DHT22;14442;50.196;8.096;2022-10-31T03:44:42;19.70;66.70
15983;DHT22;14442;50.196;8.096;2022-10-31T03:47:10;19.70;66.70
15983;DHT22;14442;50.196;8.096;2022-10-31T03:49:37;19.70;66.70
15983;DHT22;14442;50.196;8.096;2022-10-31T03:52:11;19.70;66.70
15983;DHT22;14442;50.196;8.096;2022-10-31T03:54:42;19.70;66.70
15983;DHT22;14442;50.196;8.096;2022-10-31T03:57:16;19.70;66.70
15983;DHT22;14442;50.196;8.096;2022-10-31T03:59:48;19.70;66.70
15983;DHT22;14442;50.196;8.096;2022-10-31T04:02:20;19.70;66.70
15983;DHT22;14442;50.196;8.096;2022-10-31T04:04:48;19.70;66.70
15983;DHT22;14442;50.196;8.096;2022-10-31T04:07:17;19.70;66.70
15983;DHT22;14442;50.196;8.096;2022-10-31T04:09:46;19.70;66.70
15983;DHT22;14442;50.196;8.096;2022-10-31T04:12:15;19.70;66.70
15983;DHT22;14442;50.196;8.096;2022-10-31T04:14:44;19.70;66.70
15983;DHT22;14442;50.196;8.096;2022-10-31T04:17:15;19.70;66.80
15983;DHT22;14442;50.196;8.096;2022-10-31T04:19:42;19.60;66.60
15983;DHT22;14442;50.196;8.096;2022-10-31T04:22:09;19.60;66.60
15983;DHT22;14442;50.196;8.096;2022-10-31T04:24:39;19.60;66.60
15983;DHT22;14442;50.196;8.096;2022-10-31T04:27:06;19.60;66.60
15983;DHT22;14442;50.196;8.096;2022-10-31T04:29:33;19.60;66.60
15983;DHT22;14442;50.196;8.096;2022-10-31T04:31:59;19.60;66.60
15983;DHT22;14442;50.196;8.096;2022-10-31T04:34:26;19.60;66.60
15983;DHT22;14442;50.196;8.096;2022-10-31T04:36:53;19.60;66.60
15983;DHT22;14442;50.196;8.096;2022-10-31T04:39:19;19.60;66.70
15983;DHT22;14442;50.196;8.096;2022-10-31T04:41:47;19.60;66.60
15983;DHT22;14442;50.196;8.096;2022-10-31T04:44:15;19.60;66.60
15983;DHT22;14442;50.196;8.096;2022-10-31T04:46:41;19.60;66.60
15983;DHT22;14442;50.196;8.096;2022-10-31T04:49:08;19.60;66.60
15983;DHT22;14442;50.196;8.096;2022-10-31T04:51:34;19.60;66.60
15983;DHT22;14442;50.196;8.096;2022-10-31T04:54:01;19.60;66.60
15983;DHT22;14442;50.196;8.096;2022-10-31T04:56:28;19.60;66.60
15983;DHT22;14442;50.196;8.096;2022-10-31T04:58:56;19.60;66.60
15983;DHT22;14442;50.196;8.096;2022-10-31T05:01:23;19.60;66.60
15983;DHT22;14442;50.196;8.096;2022-10-31T05:03:50;19.60;66.60
15983;DHT22;14442;50.196;8.096;2022-10-31T05:06:16;19.60;66.60
15983;DHT22;14442;50.196;8.096;2022-10-31T05:08:43;19.60;66.60
15983;DHT22;14442;50.196;8.096;2022-10-31T05:11:10;19.60;66.60
15983;DHT22;14442;50.196;8.096;2022-10-31T05:13:36;19.50;66.50
15983;DHT22;14442;50.196;8.096;2022-10-31T05:16:05;19.60;66.60
15983;DHT22;14442;50.196;8.096;2022-10-31T05:18:31;19.60;66.60
15983;DHT22;14442;50.196;8.096;2022-10-31T05:20:58;19.50;66.50
15983;DHT22;14442;50.196;8.096;2022-10-31T05:23:25;19.50;66.50
15983;DHT22;14442;50.196;8.096;2022-10-31T05:25:51;19.50;66.50
15983;DHT22;14442;50.196;8.096;2022-10-31T05:28:18;19.60;66.60
15983;DHT22;14442;50.196;8.096;2022-10-31T05:30:45;19.50;66.60
15983;DHT22;14442;50.196;8.096;2022-10-31T05:33:13;19.50;66.50
15983;DHT22;14442;50.196;8.096;2022-10-31T05:35:39;19.50;66.50
15983;DHT22;14442;50.196;8.096;2022-10-31T05:38:06;19.50;67.30
15983;DHT22;14442;50.196;8.096;2022-10-31T05:40:33;19.50;66.60
15983;DHT22;14442;50.196;8.096;2022-10-31T05:42:59;19.50;66.50
15983;DHT22;14442;50.196;8.096;2022-10-31T05:45:26;19.50;66.50
15983;DHT22;14442;50.196;8.096;2022-10-31T05:47:54;19.50;66.50
15983;DHT22;14442;50.196;8.096;2022-10-31T05:50:23;19.50;66.50
15983;DHT22;14442;50.196;8.096;2022-10-31T05:52:54;19.50;66.50
15983;DHT22;14442;50.196;8.096;2022-10-31T05:55:21;19.50;66.50
15983;DHT22;14442;50.196;8.096;2022-10-31T05:57:48;19.50;66.50
15983;DHT22;14442;50.196;8.096;2022-10-31T06:00:15;19.50;66.50
15983;DHT22;14442;50.196;8.096;2022-10-31T06:02:41;19.50;66.50
15983;DHT22;14442;50.196;8.096;2022-10-31T06:05:08;19.50;66.60
15983;DHT22;14442;50.196;8.096;2022-10-31T06:07:36;19.50;66.50
15983;DHT22;14442;50.196;8.096;2022-10-31T06:10:05;19.50;66.50
15983;DHT22;14442;50.196;8.096;2022-10-31T06:12:32;19.40;66.40
15983;DHT22;14442;50.196;8.096;2022-10-31T06:15:03;19.50;66.50
15983;DHT22;14442;50.196;8.096;2022-10-31T06:17:30;19.50;66.50
15983;DHT22;14442;50.196;8.096;2022-10-31T06:19:57;19.40;66.30
15983;DHT22;14442;50.196;8.096;2022-10-31T06:22:24;19.40;66.30
15983;DHT22;14442;50.196;8.096;2022-10-31T06:24:52;19.50;66.50
15983;DHT22;14442;50.196;8.096;2022-10-31T06:27:18;19.40;66.30
15983;DHT22;14442;50.196;8.096;2022-10-31T06:29:45;19.40;66.30
15983;DHT22;14442;50.196;8.096;2022-10-31T06:32:12;19.50;66.50
15983;DHT22;14442;50.196;8.096;2022-10-31T06:34:39;19.40;66.30
15983;DHT22;14442;50.196;8.096;2022-10-31T06:37:06;19.40;66.30
15983;DHT22;14442;50.196;8.096;2022-10-31T06:39:33;19.40;66.30
15983;DHT22;14442;50.196;8.096;2022-10-31T06:42:01;19.40;66.20
15983;DHT22;14442;50.196;8.096;2022-10-31T06:44:28;19.40;66.20
15983;DHT22;14442;50.196;8.096;2022-10-31T06:46:55;19.40;66.30
15983;DHT22;14442;50.196;8.096;2022-10-31T06:49:21;19.30;66.10
15983;DHT22;14442;50.196;8.096;2022-10-31T06:51:49;19.40;66.90
15983;DHT22;14442;50.196;8.096;2022-10-31T06:54:16;19.40;66.20
15983;DHT22;14442;50.196;8.096;2022-10-31T06:56:45;19.40;66.20
15983;DHT22;14442;50.196;8.096;2022-10-31T06:59:13;19.40;66.20
15983;DHT22;14442;50.196;8.096;2022-10-31T07:01:39;19.40;66.30
15983;DHT22;14442;50.196;8.096;2022-10-31T07:04:08;19.40;66.30
15983;DHT22;14442;50.196;8.096;2022-10-31T07:06:34;19.40;66.20
15983;DHT22;14442;50.196;8.096;2022-10-31T07:09:01;19.40;66.30
15983;DHT22;14442;50.196;8.096;2022-10-31T07:11:28;19.40;66.20
15983;DHT22;14442;50.196;8.096;2022-10-31T07:13:54;19.40;66.20
15983;DHT22;14442;50.196;8.096;2022-10-31T07:16:22;19.40;66.20
15983;DHT22;14442;50.196;8.096;2022-10-31T07:18:49;19.40;66.20
15983;DHT22;14442;50.196;8.096;2022-10-31T07:21:16;19.40;66.10
15983;DHT22;14442;50.196;8.096;2022-10-31T07:23:43;19.40;66.10
15983;DHT22;14442;50.196;8.096;2022-10-31T07:26:10;19.40;66.10
15983;DHT22;14442;50.196;8.096;2022-10-31T07:28:36;19.40;66.10
15983;DHT22;14442;50.196;8.096;2022-10-31T07:31:03;19.40;66.10
15983;DHT22;14442;50.196;8.096;2022-10-31T07:33:31;19.40;66.20
15983;DHT22;14442;50.196;8.096;2022-10-31T07:35:58;19.40;66.10
15983;DHT22;14442;50.196;8.096;2022-10-31T07:38:24;19.40;66.10
15983;DHT22;14442;50.196;8.096;2022-10-31T07:40:52;19.40;66.20
15983;DHT22;14442;50.196;8.096;2022-10-31T07:43:19;19.30;66.10
15983;DHT22;14442;50.196;8.096;2022-10-31T07:45:49;19.30;66.10
15983;DHT22;14442;50.196;8.096;2022-10-31T07:48:16;19.40;66.20
15983;DHT22;14442;50.196;8.096;2022-10-31T07:50:44;19.40;66.10
15983;DHT22;14442;50.196;8.096;2022-10-31T07:53:12;19.40;66.10
15983;DHT22;14442;50.196;8.096;2022-10-31T07:55:39;19.40;66.10
15983;DHT22;14442;50.196;8.096;2022-10-31T07:58:07;19.40;66.10
15983;DHT22;14442;50.196;8.096;2022-10-31T08:00:35;19.40;66.20
15983;DHT22;14442;50.196;8.096;2022-10-31T08:03:04;19.40;66.10
15983;DHT22;14442;50.196;8.096;2022-10-31T08:05:32;19.40;66.10
15983;DHT22;14442;50.196;8.096;2022-10-31T08:08:00;19.40;66.10
15983;DHT22;14442;50.196;8.096;2022-10-31T08:10:27;19.40;66.10
15983;DHT22;14442;50.196;8.096;2022-10-31T08:12:58;19.40;66.10
15983;DHT22;14442;50.196;8.096;2022-10-31T08:15:25;19.30;66.00
15983;DHT22;14442;50.196;8.096;2022-10-31T08:17:52;19.30;66.00
15983;DHT22;14442;50.196;8.096;2022-10-31T08:20:19;19.40;66.10
15983;DHT22;14442;50.196;8.096;2022-10-31T08:22:54;19.40;66.10
15983;DHT22;14442;50.196;8.096;2022-10-31T08:25:22;19.40;66.10
15983;DHT22;14442;50.196;8.096;2022-10-31T08:27:50;19.40;66.10
15983;DHT22;14442;50.196;8.096;2022-10-31T08:30:17;19.30;66.00
15983;DHT22;14442;50.196;8.096;2022-10-31T08:32:44;19.40;66.10
15983;DHT22;14442;50.196;8.096;2022-10-31T08:35:11;19.40;66.10
15983;DHT22;14442;50.196;8.096;2022-10-31T08:37:37;19.40;66.10
15983;DHT22;14442;50.196;8.096;2022-10-31T08:40:05;19.40;66.10
15983;DHT22;14442;50.196;8.096;2022-10-31T08:42:34;19.40;66.10
15983;DHT22;14442;50.196;8.096;2022-10-31T08:45:00;19.40;66.10
15983;DHT22;14442;50.196;8.096;2022-10-31T08:47:27;19.40;66.10
15983;DHT22;14442;50.196;8.096;2022-10-31T08:49:54;19.30;66.00
15983;DHT22;14442;50.196;8.096;2022-10-31T08:52:22;19.40;66.10
15983;DHT22;14442;50.196;8.096;2022-10-31T08:54:49;19.40;66.00
15983;DHT22;14442;50.196;8.096;2022-10-31T08:57:16;19.40;66.00
15983;DHT22;14442;50.196;8.096;2022-10-31T08:59:44;19.40;65.90
15983;DHT22;14442;50.196;8.096;2022-10-31T09:02:10;19.40;65.90
15983;DHT22;14442;50.196;8.096;2022-10-31T09:04:37;19.40;65.80
15983;DHT22;14442;50.196;8.096;2022-10-31T09:07:04;19.40;65.90
15983;DHT22;14442;50.196;8.096;2022-10-31T09:09:30;19.50;66.30
15983;DHT22;14442;50.196;8.096;2022-10-31T09:11:57;19.50;66.40
15983;DHT22;14442;50.196;8.096;2022-10-31T09:14:24;19.50;66.30
15983;DHT22;14442;50.196;8.096;2022-10-31T09:16:52;19.50;66.20
15983;DHT22;14442;50.196;8.096;2022-10-31T09:19:19;19.50;66.10
15983;DHT22;14442;50.196;8.096;2022-10-31T09:21:45;19.50;66.30
15983;DHT22;14442;50.196;8.096;2022-10-31T09:24:12;19.50;66.40
15983;DHT22;14442;50.196;8.096;2022-10-31T09:26:39;19.50;66.30
15983;DHT22;14442;50.196;8.096;2022-10-31T09:29:05;19.50;66.40
15983;DHT22;14442;50.196;8.096;2022-10-31T09:31:35;19.60;66.60
15983;DHT22;14442;50.196;8.096;2022-10-31T09:34:03;19.50;66.20
15983;DHT22;14442;50.196;8.096;2022-10-31T09:36:30;19.50;66.40
15983;DHT22;14442;50.196;8.096;2022-10-31T09:38:57;19.50;66.30
15983;DHT22;14442;50.196;8.096;2022-10-31T09:41:28;19.50;66.60
15983;DHT22;14442;50.196;8.096;2022-10-31T09:44:04;19.50;66.50
15983;DHT22;14442;50.196;8.096;2022-10-31T09:46:41;19.60;66.50
15983;DHT22;14442;50.196;8.096;2022-10-31T09:49:37;19.60;66.60
15983;DHT22;14442;50.196;8.096;2022-10-31T09:52:12;19.60;66.70
15983;DHT22;14442;50.196;8.096;2022-10-31T09:54:46;19.60;67.40
15983;DHT22;14442;50.196;8.096;2022-10-31T09:57:17;19.70;67.30
15983;DHT22;14442;50.196;8.096;2022-10-31T09:59:46;19.70;67.30
15983;DHT22;14442;50.196;8.096;2022-10-31T10:02:19;19.70;67.20
15983;DHT22;14442;50.196;8.096;2022-10-31T10:04:53;19.70;67.30
15983;DHT22;14442;50.196;8.096;2022-10-31T10:07:27;19.70;67.30
15983;DHT22;14442;50.196;8.096;2022-10-31T10:09:57;19.70;67.20
15983;DHT22;14442;50.196;8.096;2022-10-31T10:12:35;19.70;67.40
15983;DHT22;14442;50.196;8.096;2022-10-31T10:15:29;19.60;67.30
15983;DHT22;14442;50.196;8.096;2022-10-31T10:18:05;19.70;67.10
15983;DHT22;14442;50.196;8.096;2022-10-31T10:20:41;19.70;67.50
15983;DHT22;14442;50.196;8.096;2022-10-31T10:23:32;19.70;67.40
15983;DHT22;14442;50.196;8.096;2022-10-31T10:26:03;19.70;67.20
15983;DHT22;14442;50.196;8.096;2022-10-31T10:28:34;19.70;67.20
15983;DHT22;14442;50.196;8.096;2022-10-31T10:31:07;19.70;66.90
15983;DHT22;14442;50.196;8.096;2022-10-31T10:33:39;19.70;67.50
15983;DHT22;14442;50.196;8.096;2022-10-31T10:36:11;19.80;68.50
15983;DHT22;14442;50.196;8.096;2022-10-31T10:38:53;19.80;67.30
15983;DHT22;14442;50.196;8.096;2022-10-31T10:41:24;19.80;67.20
15983;DHT22;14442;50.196;8.096;2022-10-31T10:43:51;19.90;67.50
15983;DHT22;14442;50.196;8.096;2022-10-31T10:46:21;19.90;67.30
15983;DHT22;14442;50.196;8.096;2022-10-31T10:49:15;19.90;67.40
15983;DHT22;14442;50.196;8.096;2022-10-31T10:51:45;19.90;67.50
15983;DHT22;14442;50.196;8.096;2022-10-31T10:54:39;19.90;67.20
15983;DHT22;14442;50.196;8.096;2022-10-31T10:57:18;19.90;67.20
15983;DHT22;14442;50.196;8.096;2022-10-31T10:59:47;19.80;67.20
15983;DHT22;14442;50.196;8.096;2022-10-31T11:02:17;19.80;66.90
15983;DHT22;14442;50.196;8.096;2022-10-31T11:04:45;19.80;66.80
15983;DHT22;14442;50.196;8.096;2022-10-31T11:07:15;19.80;66.90
15983;DHT22;14442;50.196;8.096;2022-10-31T11:09:41;19.90;67.00
15983;DHT22;14442;50.196;8.096;2022-10-31T11:12:10;19.90;66.90
15983;DHT22;14442;50.196;8.096;2022-10-31T11:14:44;19.90;66.90
15983;DHT22;14442;50.196;8.096;2022-10-31T11:17:20;19.90;66.90
15983;DHT22;14442;50.196;8.096;2022-10-31T11:20:05;19.90;66.70
15983;DHT22;14442;50.196;8.096;2022-10-31T11:22:34;19.90;66.80
15983;DHT22;14442;50.196;8.096;2022-10-31T11:25:00;19.90;66.70
15983;DHT22;14442;50.196;8.096;2022-10-31T11:27:27;19.90;66.70
15983;DHT22;14442;50.196;8.096;2022-10-31T11:30:04;19.90;66.80
15983;DHT22;14442;50.196;8.096;2022-10-31T11:32:31;19.90;66.70
15983;DHT22;14442;50.196;8.096;2022-10-31T11:35:01;19.90;66.70
15983;DHT22;14442;50.196;8.096;2022-10-31T11:37:29;19.90;66.60
15983;DHT22;14442;50.196;8.096;2022-10-31T11:40:05;19.90;66.50
15983;DHT22;14442;50.196;8.096;2022-10-31T11:42:37;19.90;66.50
15983;DHT22;14442;50.196;8.096;2022-10-31T11:45:13;19.90;66.50
15983;DHT22;14442;50.196;8.096;2022-10-31T11:47:42;19.90;66.50
15983;DHT22;14442;50.196;8.096;2022-10-31T11:50:15;19.90;66.40
15983;DHT22;14442;50.196;8.096;2022-10-31T11:52:44;19.90;66.40
15983;DHT22;14442;50.196;8.096;2022-10-31T11:55:25;19.90;66.30
15983;DHT22;14442;50.196;8.096;2022-10-31T11:57:56;19.90;66.30
15983;DHT22;14442;50.196;8.096;2022-10-31T12:00:24;19.90;66.30
15983;DHT22;14442;50.196;8.096;2022-10-31T12:03:04;19.90;66.30
15983;DHT22;14442;50.196;8.096;2022-10-31T12:05:38;19.90;66.30
15983;DHT22;14442;50.196;8.096;2022-10-31T12:08:07;20.00;66.40
15983;DHT22;14442;50.196;8.096;2022-10-31T12:10:40;20.00;66.30
15983;DHT22;14442;50.196;8.096;2022-10-31T12:13:24;20.00;66.20
15983;DHT22;14442;50.196;8.096;2022-10-31T12:15:57;20.00;66.20
15983;DHT22;14442;50.196;8.096;2022-10-31T12:18:35;20.00;66.10
15983;DHT22;14442;50.196;8.096;2022-10-31T12:21:15;20.10;66.00
15983;DHT22;14442;50.196;8.096;2022-10-31T12:23:55;20.10;66.00
15983;DHT22;14442;50.196;8.096;2022-10-31T12:26:33;20.00;65.80
15983;DHT22;14442;50.196;8.096;2022-10-31T12:29:11;20.10;65.90
15983;DHT22;14442;50.196;8.096;2022-10-31T12:31:48;20.10;65.80
15983;DHT22;14442;50.196;8.096;2022-10-31T12:34:33;20.10;65.80
15983;DHT22;14442;50.196;8.096;2022-10-31T12:37:10;20.10;65.80
15983;DHT22;14442;50.196;8.096;2022-10-31T12:39:44;20.10;66.50
15983;DHT22;14442;50.196;8.096;2022-10-31T12:42:19;20.10;65.80
15983;DHT22;14442;50.196;8.096;2022-10-31T12:45:12;20.10;65.80
15983;DHT22;14442;50.196;8.096;2022-10-31T12:48:01;20.10;65.70
15983;DHT22;14442;50.196;8.096;2022-10-31T12:50:41;20.20;65.70
15983;DHT22;14442;50.196;8.096;2022-10-31T12:53:23;20.20;65.80
15983;DHT22;14442;50.196;8.096;2022-10-31T12:56:01;20.20;65.80
15983;DHT22;14442;50.196;8.096;2022-10-31T12:58:34;20.20;65.70
15983;DHT22;14442;50.196;8.096;2022-10-31T13:01:09;20.20;65.70
15983;DHT22;14442;50.196;8.096;2022-10-31T13:03:44;20.20;65.70
15983;DHT22;14442;50.196;8.096;2022-10-31T13:06:17;20.20;65.60
15983;DHT22;14442;50.196;8.096;2022-10-31T13:08:49;20.20;65.60
15983;DHT22;14442;50.196;8.096;2022-10-31T13:11:20;20.20;65.60
15983;DHT22;14442;50.196;8.096;2022-10-31T13:13:56;20.20;65.70
15983;DHT22;14442;50.196;8.096;2022-10-31T13:16:29;20.30;65.70
15983;DHT22;14442;50.196;8.096;2022-10-31T13:18:58;20.20;65.60
15983;DHT22;14442;50.196;8.096;2022-10-31T13:21:30;20.30;65.60
15983;DHT22;14442;50.196;8.096;2022-10-31T13:23:59;20.30;65.50
15983;DHT22;14442;50.196;8.096;2022-10-31T13:26:37;20.20;65.50
15983;DHT22;14442;50.196;8.096;2022-10-31T13:29:13;20.30;65.60
15983;DHT22;14442;50.196;8.096;2022-10-31T13:31:43;20.20;65.50
15983;DHT22;14442;50.196;8.096;2022-10-31T13:34:18;20.30;65.60
15983;DHT22;14442;50.196;8.096;2022-10-31T13:36:53;20.30;65.70
15983;DHT22;14442;50.196;8.096;2022-10-31T13:39:29;20.20;65.50
15983;DHT22;14442;50.196;8.096;2022-10-31T13:42:10;20.30;65.50
15983;DHT22;14442;50.196;8.096;2022-10-31T13:44:40;20.30;65.50
15983;DHT22;14442;50.196;8.096;2022-10-31T13:47:25;20.30;65.60
15983;DHT22;14442;50.196;8.096;2022-10-31T13:50:03;20.30;65.60
15983;DHT22;14442;50.196;8.096;2022-10-31T13:52:30;20.30;65.50
15983;DHT22;14442;50.196;8.096;2022-10-31T13:54:57;20.30;65.60
15983;DHT22;14442;50.196;8.096;2022-10-31T13:57:32;20.30;65.60
15983;DHT22;14442;50.196;8.096;2022-10-31T14:00:02;20.30;65.40
15983;DHT22;14442;50.196;8.096;2022-10-31T14:02:31;20.30;65.40
15983;DHT22;14442;50.196;8.096;2022-10-31T14:05:01;20.30;65.40
15983;DHT22;14442;50.196;8.096;2022-10-31T14:07:30;20.30;65.40
15983;DHT22;14442;50.196;8.096;2022-10-31T14:09:59;20.30;65.40
15983;DHT22;14442;50.196;8.096;2022-10-31T14:12:30;20.30;65.50
15983;DHT22;14442;50.196;8.096;2022-10-31T14:15:03;20.30;65.30
15983;DHT22;14442;50.196;8.096;2022-10-31T14:17:38;20.30;65.30
15983;DHT22;14442;50.196;8.096;2022-10-31T14:20:33;20.30;65.40
15983;DHT22;14442;50.196;8.096;2022-10-31T14:23:29;20.30;65.20
15983;DHT22;14442;50.196;8.096;2022-10-31T14:26:20;20.30;65.20
15983;DHT22;14442;50.196;8.096;2022-10-31T14:28:48;20.30;65.20
15983;DHT22;14442;50.196;8.096;2022-10-31T14:31:30;20.30;65.20
15983;DHT22;14442;50.196;8.096;2022-10-31T14:34:00;20.30;66.20
15983;DHT22;14442;50.196;8.096;2022-10-31T14:36:33;20.30;65.50
15983;DHT22;14442;50.196;8.096;2022-10-31T14:39:09;20.30;65.50
15983;DHT22;14442;50.196;8.096;2022-10-31T14:41:49;20.30;65.50
15983;DHT22;14442;50.196;8.096;2022-10-31T14:47:35;20.30;65.50
15983;DHT22;14442;50.196;8.096;2022-10-31T14:50:20;20.30;65.40
15983;DHT22;14442;50.196;8.096;2022-10-31T14:52:51;20.30;65.30
15983;DHT22;14442;50.196;8.096;2022-10-31T14:55:19;20.40;65.50
15983;DHT22;14442;50.196;8.096;2022-10-31T14:57:50;20.30;65.30
15983;DHT22;14442;50.196;8.096;2022-10-31T15:00:19;20.30;65.40
15983;DHT22;14442;50.196;8.096;2022-10-31T15:02:55;20.40;65.30
15983;DHT22;14442;50.196;8.096;2022-10-31T15:05:23;20.30;65.30
15983;DHT22;14442;50.196;8.096;2022-10-31T15:07:53;20.30;65.30
15983;DHT22;14442;50.196;8.096;2022-10-31T15:10:23;20.30;65.30
15983;DHT22;14442;50.196;8.096;2022-10-31T15:12:51;20.30;65.30
15983;DHT22;14442;50.196;8.096;2022-10-31T15:15:20;20.30;65.30
15983;DHT22;14442;50.196;8.096;2022-10-31T15:17:51;20.30;65.40
15983;DHT22;14442;50.196;8.096;2022-10-31T15:20:19;20.30;65.30
15983;DHT22;14442;50.196;8.096;2022-10-31T15:22:47;20.30;66.00
15983;DHT22;14442;50.196;8.096;2022-10-31T15:25:18;20.30;65.20
15983;DHT22;14442;50.196;8.096;2022-10-31T15:27:46;20.30;65.20
15983;DHT22;14442;50.196;8.096;2022-10-31T15:30:18;20.30;65.20
15983;DHT22;14442;50.196;8.096;2022-10-31T15:32:45;20.30;65.40
15983;DHT22;14442;50.196;8.096;2022-10-31T15:35:20;20.20;65.40
15983;DHT22;14442;50.196;8.096;2022-10-31T15:37:47;20.20;65.40
15983;DHT22;14442;50.196;8.096;2022-10-31T15:40:16;20.20;65.40
15983;DHT22;14442;50.196;8.096;2022-10-31T15:42:45;20.20;65.50
15983;DHT22;14442;50.196;8.096;2022-10-31T15:45:18;20.20;65.50
15983;DHT22;14442;50.196;8.096;2022-10-31T15:47:49;20.20;65.60
15983;DHT22;14442;50.196;8.096;2022-10-31T15:50:25;20.20;65.60
15983;DHT22;14442;50.196;8.096;2022-10-31T15:52:53;20.20;65.50
15983;DHT22;14442;50.196;8.096;2022-10-31T15:55:23;20.20;65.50
15983;DHT22;14442;50.196;8.096;2022-10-31T15:57:53;20.20;66.10
15983;DHT22;14442;50.196;8.096;2022-10-31T16:00:25;20.20;65.40